Accueil
METAR-TAF:

METAR-TAF

Aéroports :

Aéroport du Touquet-Côte d'Opale

Le Touquet, France

latitude: 50-30-53N, longitude: 001-37-39E, altitude: 6 m

Observation

Le bulletin a été fait il y a 13 minutes, à 04:30 UTC
Vent 2 kt de est/sud-est
Température 16°C
Humidité 100%
Pression 1017 hPa
Visibilité: 8000 m

METAR: LFAT 200430Z AUTO 12002KT 8000 OVC013/// ///CB 16/16 Q1017

Heure: 06:43 (04:43 UTC)

Prévision

Le bulletin a été fait il y a 14 heures et 43 minutes, à 14:00 UTC
Prévision valable du 19 à 15 UTC au 19 à 24 UTC
Vent 5 kt de ouest/nord-ouest
Visibilité 10 km ou plus
pas de nuages en-dessous de 1500 mètres et pas de cumulonimbus.
Temporairement
du 19 à 16 UTC au 19 à 24 UTC
Visibilité: 3000 m
Nuages fragmentés à une hauteur de 700 ft
Nuages fragmentés à une hauteur de 3000 ft, Cumulonimbus.
averses de pluie

TAF: LFAT 191400Z 1915/1924 30005KT CAVOK TEMPO 1916/1924 3000 SHRA BKN007 BKN030CB

Observations et prévisions météorologiques de plus de 4000 aéroports (messages METAR et TAF).

Les stations disponibles sont représentées par des disques jaunes et rouges sur la carte.

Passer la souris dessus pour voir le nom de la station.

Cliquer dessus pour voir les observations et prévisions météorologiques.

Pour changer de carte: cliquez sur les boutons verts avec une croix noire pour zoomer, sur le bouton vert avec un tiret pour effectuer un zoom arrière, ou sur les flèches vertes pour les cartes adjacentes.


METAR-TAF: